Time;durP1;ratioP1;P1;durP2;ratioP2;P2;SDS_P1;SDS_P2;PMS_P1;PMS_P2;Temp;Humidity;BMP_temperature;BMP_pressure;BME280_temperature;BME280_humidity;BME280_pressure;Samples;Min_cycle;Max_cycle;Signal;HPM_P1;HPM_P2
2021/11/15 00:00:35;;;;;;;23.73;19.02;;;;;;;13.71;69.14;102150.25;4938956;28;102142;-90
2021/11/15 00:03:04;;;;;;;22.65;18.77;;;;;;;13.71;69.08;102147.53;4935636;28;102310;-91
2021/11/15 00:05:30;;;;;;;22.88;18.38;;;;;;;13.71;69.16;102153.00;4929516;28;103617;-90
2021/11/15 00:07:57;;;;;;;23.95;19.13;;;;;;;13.70;69.06;102146.69;4935219;28;102400;-91
2021/11/15 00:10:23;;;;;;;22.60;18.40;;;;;;;13.72;69.68;102159.28;4934936;28;102678;-87
2021/11/15 00:13:07;;;;;;;22.00;18.42;;;;;;;13.70;69.05;102152.16;4935593;28;102381;-87
2021/11/15 00:15:35;;;;;;;20.53;17.67;;;;;;;13.70;69.00;102152.16;4932403;28;103959;-87
2021/11/15 00:18:16;;;;;;;21.40;18.13;;;;;;;13.70;69.03;102146.69;4931060;28;102233;-86
2021/11/15 00:20:51;;;;;;;23.42;18.90;;;;;;;13.70;69.31;102154.91;4939811;28;102585;-87
2021/11/15 00:23:19;;;;;;;21.95;17.88;;;;;;;13.71;69.13;102153.00;4938376;28;102439;-88
2021/11/15 00:25:47;;;;;;;23.92;17.58;;;;;;;13.70;69.17;102149.44;4927236;28;105011;-88
2021/11/15 00:28:13;;;;;;;21.40;17.63;;;;;;;13.70;69.22;102146.69;4934756;28;102656;-88
2021/11/15 00:30:40;;;;;;;21.60;17.75;;;;;;;13.69;69.05;102153.22;4933032;28;102401;-87
2021/11/15 00:33:08;;;;;;;21.77;18.20;;;;;;;13.70;69.08;102152.16;4932422;28;102189;-86
2021/11/15 00:35:36;;;;;;;23.02;18.83;;;;;;;13.70;69.10;102151.31;4914125;28;103709;-86
2021/11/15 00:38:03;;;;;;;21.60;17.70;;;;;;;13.70;68.97;102156.78;4935129;28;102498;-86
2021/11/15 00:40:30;;;;;;;21.35;17.20;;;;;;;13.70;69.05;102154.91;4924596;28;102229;-87
2021/11/15 00:42:57;;;;;;;21.65;17.63;;;;;;;13.70;69.28;102151.31;4929268;28;102523;-87
2021/11/15 00:45:23;;;;;;;21.15;17.63;;;;;;;13.69;69.13;102149.66;4943698;28;102777;-87
2021/11/15 00:47:50;;;;;;;20.88;17.52;;;;;;;13.69;69.16;102142.28;4931375;28;102349;-87
2021/11/15 00:50:20;;;;;;;21.75;17.52;;;;;;;13.70;69.06;102143.97;4936047;28;102407;-88
2021/11/15 00:52:49;;;;;;;21.17;17.80;;;;;;;13.69;69.13;102147.75;4917966;28;102477;-91
2021/11/15 00:55:16;;;;;;;21.10;17.33;;;;;;;13.69;69.06;102138.72;4935668;28;104074;-91
2021/11/15 00:57:43;;;;;;;20.20;17.10;;;;;;;13.68;69.11;102143.38;4933212;28;102138;-91
2021/11/15 01:00:13;;;;;;;19.95;17.00;;;;;;;13.69;69.23;102153.22;4934448;28;102227;-91
2021/11/15 01:02:39;;;;;;;20.48;17.50;;;;;;;13.68;68.90;102143.38;4934762;28;102369;-92
2021/11/15 01:05:07;;;;;;;18.95;16.38;;;;;;;13.68;69.10;102137.91;4925681;28;104034;-92
2021/11/15 01:07:33;;;;;;;19.08;16.48;;;;;;;13.68;69.13;102137.91;4935026;28;102743;-91
2021/11/15 01:10:01;;;;;;;19.42;15.70;;;;;;;13.67;68.92;102136.25;4933017;28;102014;-92
2021/11/15 01:12:28;;;;;;;21.50;17.40;;;;;;;13.67;68.96;102136.25;4932251;28;102651;-92
2021/11/15 01:14:55;;;;;;;20.27;16.52;;;;;;;13.68;69.05;102139.81;4936003;28;102795;-92
2021/11/15 01:17:22;;;;;;;21.38;16.90;;;;;;;13.67;68.90;102141.72;4932334;28;102761;-91
2021/11/15 01:19:48;;;;;;;20.58;16.58;;;;;;;13.67;69.10;102140.91;4932759;28;102781;-92
2021/11/15 01:22:15;;;;;;;19.83;15.88;;;;;;;13.66;68.90;102142.78;4940142;28;102252;-92
2021/11/15 01:24:42;;;;;;;18.80;16.25;;;;;;;13.66;69.02;102145.53;4935534;28;102381;-92
2021/11/15 01:27:10;;;;;;;18.92;16.10;;;;;;;13.67;68.92;102147.22;4935179;28;102046;-91
2021/11/15 01:29:36;;;;;;;19.55;16.25;;;;;;;13.66;68.97;102145.53;4934892;28;102206;-92
2021/11/15 01:32:03;;;;;;;20.25;16.27;;;;;;;13.66;69.10;102145.53;4931819;28;102500;-91
2021/11/15 01:34:30;;;;;;;20.45;17.15;;;;;;;13.66;69.13;102144.72;4922002;28;103968;-91
2021/11/15 01:36:57;;;;;;;19.52;15.77;;;;;;;13.66;69.01;102151.00;4935914;28;102581;-91
2021/11/15 01:39:24;;;;;;;20.05;16.33;;;;;;;13.66;68.89;102150.19;4932068;28;102344;-90
2021/11/15 01:41:52;;;;;;;18.70;16.58;;;;;;;13.65;68.97;102160.31;4931036;28;102372;-95
2021/11/15 01:44:21;;;;;;;18.45;15.63;;;;;;;13.66;69.05;102158.38;4955943;28;101888;-96
2021/11/15 01:46:51;;;;;;;20.38;16.13;;;;;;;13.65;68.85;102160.31;4933938;28;101238;-96
2021/11/15 01:49:18;;;;;;;19.60;16.20;;;;;;;13.66;69.06;102156.47;4951021;28;101167;-95
2021/11/15 01:51:44;;;;;;;19.48;16.02;;;;;;;13.66;68.82;102156.47;4941919;28;102246;-95
2021/11/15 01:54:11;;;;;;;18.58;15.63;;;;;;;13.65;68.99;102160.31;4933391;28;102129;-92
2021/11/15 01:56:38;;;;;;;17.95;15.35;;;;;;;13.66;68.85;102166.59;4927787;28;102444;-92
2021/11/15 01:59:05;;;;;;;19.13;15.23;;;;;;;13.64;68.90;102164.13;4929155;28;102415;-93
2021/11/15 02:01:33;;;;;;;19.92;16.42;;;;;;;13.65;68.80;102171.25;4937653;28;102537;-93
2021/11/15 02:03:59;;;;;;;22.02;16.45;;;;;;;13.64;69.08;102164.13;4934545;28;102403;-93
2021/11/15 02:06:26;;;;;;;19.00;15.32;;;;;;;13.63;69.00;102165.22;4931396;28;102209;-93
2021/11/15 02:08:53;;;;;;;22.55;15.60;;;;;;;13.64;69.03;102175.06;4926521;28;102295;-93
2021/11/15 02:11:20;;;;;;;18.30;15.57;;;;;;;13.65;68.88;102170.44;4943224;28;102696;-93
2021/11/15 02:13:46;;;;;;;20.50;15.63;;;;;;;13.64;68.78;102174.25;4939100;28;102720;-93
2021/11/15 02:16:13;;;;;;;18.85;15.70;;;;;;;13.64;68.83;102185.19;4935341;28;102094;-93
2021/11/15 02:18:42;;;;;;;17.03;14.77;;;;;;;13.64;69.02;102180.53;4930822;28;102113;-92
2021/11/15 02:21:10;;;;;;;18.77;14.98;;;;;;;13.64;68.95;102183.28;4933742;28;102221;-92
2021/11/15 02:23:40;;;;;;;18.60;14.00;;;;;;;13.63;68.80;102178.91;4949784;28;103892;-91
2021/11/15 02:26:08;;;;;;;19.67;15.40;;;;;;;13.64;68.89;102180.53;4938612;28;102322;-92
2021/11/15 02:28:39;;;;;;;18.00;15.17;;;;;;;13.64;69.04;102179.72;4943262;28;102378;-92
2021/11/15 02:31:08;;;;;;;18.20;15.20;;;;;;;13.63;68.96;102178.91;4919860;28;102119;-92
2021/11/15 02:33:34;;;;;;;18.95;15.38;;;;;;;13.63;68.90;102187.09;4934893;28;103393;-92
2021/11/15 02:36:02;;;;;;;18.75;14.73;;;;;;;13.62;68.99;102171.75;4937107;28;102200;-91
2021/11/15 02:38:32;;;;;;;16.45;14.00;;;;;;;13.62;69.08;102174.50;4932295;28;102225;-92
2021/11/15 02:40:59;;;;;;;19.63;15.27;;;;;;;13.63;68.91;102178.03;4931148;28;102214;-93
2021/11/15 02:43:26;;;;;;;19.33;14.63;;;;;;;13.63;69.16;102176.16;4931981;28;103903;-94
2021/11/15 02:45:52;;;;;;;18.40;14.52;;;;;;;13.62;68.72;102171.75;4933922;28;102515;-93
2021/11/15 02:48:19;;;;;;;18.33;14.98;;;;;;;13.62;68.84;102176.41;4935850;28;102351;-93
2021/11/15 02:50:47;;;;;;;17.58;14.52;;;;;;;13.62;68.97;102173.66;4918416;28;102182;-92
2021/11/15 02:53:13;;;;;;;19.42;14.27;;;;;;;13.62;68.77;102184.59;4934530;28;103873;-93
2021/11/15 02:55:43;;;;;;;16.65;13.88;;;;;;;13.62;68.76;102193.63;4936733;28;102829;-94
2021/11/15 02:58:11;;;;;;;17.23;14.18;;;;;;;13.61;68.83;102185.69;4935885;28;102144;-93
2021/11/15 03:00:40;;;;;;;17.33;14.27;;;;;;;13.61;68.67;102183.78;4937648;28;102438;-94
2021/11/15 03:03:09;;;;;;;16.40;14.00;;;;;;;13.62;68.68;102181.88;4937426;28;106999;-93
2021/11/15 03:05:39;;;;;;;18.67;14.00;;;;;;;13.62;68.81;102182.69;4937010;28;102183;-93
2021/11/15 03:08:07;;;;;;;16.27;13.77;;;;;;;13.61;68.72;102181.06;4937603;28;102424;-92
2021/11/15 03:10:35;;;;;;;18.67;14.43;;;;;;;13.61;68.93;102183.78;4936066;28;102625;-92
2021/11/15 03:13:05;;;;;;;16.02;14.32;;;;;;;13.62;69.04;102187.34;4935079;28;103256;-92
2021/11/15 03:15:33;;;;;;;16.83;14.25;;;;;;;13.61;69.20;102182.97;4937926;28;102122;-92
2021/11/15 03:18:02;;;;;;;17.27;14.20;;;;;;;13.61;68.84;102189.25;4937615;28;102548;-92
2021/11/15 03:20:31;;;;;;;17.08;13.85;;;;;;;13.62;68.81;102192.81;4935807;28;102568;-92
2021/11/15 03:22:57;;;;;;;;;;;;;;;13.62;68.96;102192.81;4933739;28;102629;-92
2021/11/15 03:25:28;;;;;;;16.30;14.27;;;;;;;13.61;68.76;102194.72;4938521;28;102699;-92
2021/11/15 03:27:56;;;;;;;15.93;13.07;;;;;;;13.61;68.70;102194.72;4933239;28;102232;-92
2021/11/15 03:30:25;;;;;;;17.52;13.20;;;;;;;13.61;68.81;102202.94;4942431;28;102678;-92
2021/11/15 03:32:51;;;;;;;17.05;14.23;;;;;;;13.61;68.62;102202.13;4940289;28;102708;-93
2021/11/15 03:35:18;;;;;;;14.77;12.85;;;;;;;13.60;68.79;102204.03;4937340;28;103137;-92
2021/11/15 03:37:45;;;;;;;15.60;13.27;;;;;;;13.61;68.69;102211.13;4952312;28;103332;-92
2021/11/15 03:40:20;;;;;;;16.42;13.60;;;;;;;13.60;68.73;102206.75;4936293;28;102611;-91
2021/11/15 03:42:47;;;;;;;15.85;12.82;;;;;;;13.60;68.73;102201.28;4934107;28;103166;-91
2021/11/15 03:45:14;;;;;;;16.52;13.13;;;;;;;13.60;68.74;102200.47;4936847;28;102571;-92
2021/11/15 03:47:43;;;;;;;14.57;12.90;;;;;;;13.61;68.61;102211.13;4934075;28;102119;-92
2021/11/15 03:50:10;;;;;;;16.27;13.77;;;;;;;13.60;68.72;102217.72;4935718;28;102179;-92
2021/11/15 03:52:38;;;;;;;15.45;12.98;;;;;;;13.60;68.76;102204.03;4935901;28;102464;-92
2021/11/15 03:55:06;;;;;;;16.80;13.43;;;;;;;13.60;68.60;102206.75;4936033;28;102418;-92
2021/11/15 03:57:33;;;;;;;15.95;13.20;;;;;;;13.60;68.49;102214.16;4933673;28;102309;-91
2021/11/15 04:00:00;;;;;;;15.93;13.35;;;;;;;13.60;68.74;102214.97;4937651;28;102322;-92
2021/11/15 04:02:30;;;;;;;15.75;12.88;;;;;;;13.61;68.49;102221.25;4936087;28;103949;-92
2021/11/15 04:05:02;;;;;;;17.25;13.43;;;;;;;13.59;68.74;102216.03;4951925;28;102249;-92
2021/11/15 04:07:37;;;;;;;16.88;13.18;;;;;;;13.61;68.75;102213.06;4940068;28;102114;-92
2021/11/15 04:10:06;;;;;;;16.42;13.35;;;;;;;13.59;69.20;102213.28;4939433;28;102189;-91
2021/11/15 04:12:33;;;;;;;16.98;13.13;;;;;;;13.60;68.89;102216.88;4939764;28;103240;-90
2021/11/15 04:14:59;;;;;;;16.40;12.63;;;;;;;13.60;68.84;102217.72;4928898;28;102244;-90
2021/11/15 04:17:26;;;;;;;15.18;13.20;;;;;;;13.59;68.65;102224.22;4934845;28;102425;-90
2021/11/15 04:19:53;;;;;;;17.00;12.98;;;;;;;13.60;68.68;102227.81;4929973;28;102379;-94
2021/11/15 04:22:21;;;;;;;16.92;12.77;;;;;;;13.60;68.70;102212.22;4942974;28;102964;-94
2021/11/15 04:24:48;;;;;;;18.80;13.88;;;;;;;13.59;68.69;102216.03;4939532;28;102050;-94
2021/11/15 04:27:15;;;;;;;15.57;13.45;;;;;;;13.60;68.55;102217.72;4937301;28;102291;-93
2021/11/15 04:29:41;;;;;;;15.85;12.70;;;;;;;13.60;68.62;102217.72;4943452;28;102310;-94
2021/11/15 04:32:09;;;;;;;14.50;12.65;;;;;;;13.59;68.76;102216.03;4938358;28;102039;-92
2021/11/15 04:34:35;;;;;;;15.90;13.38;;;;;;;13.60;68.70;102228.66;4931427;28;102446;-92
2021/11/15 04:37:02;;;;;;;17.02;12.68;;;;;;;13.59;68.73;102232.44;4923057;28;102358;-91
2021/11/15 04:39:30;;;;;;;17.02;13.02;;;;;;;13.59;68.30;102235.19;4940672;28;102587;-90
2021/11/15 04:41:57;;;;;;;15.47;12.57;;;;;;;13.59;68.76;102240.66;4925621;28;102704;-91
2021/11/15 04:44:24;;;;;;;15.65;12.43;;;;;;;13.60;68.62;102241.50;4929828;28;102300;-93
2021/11/15 04:46:50;;;;;;;17.15;13.27;;;;;;;13.59;68.78;102240.66;4929074;28;102985;-91
2021/11/15 04:49:17;;;;;;;15.55;12.18;;;;;;;13.59;68.51;102243.38;4938887;28;102005;-91
2021/11/15 04:51:43;;;;;;;15.90;12.82;;;;;;;13.60;68.83;102244.22;4933264;28;102510;-93
2021/11/15 04:54:09;;;;;;;14.48;12.15;;;;;;;13.60;68.59;102242.31;4935591;28;102202;-92
2021/11/15 04:56:37;;;;;;;16.60;12.60;;;;;;;13.60;68.82;102245.06;4934246;28;102612;-91
2021/11/15 04:59:04;;;;;;;15.73;11.80;;;;;;;13.60;68.73;102260.66;4935435;28;102226;-91
2021/11/15 05:01:30;;;;;;;14.80;11.75;;;;;;;13.60;69.03;102263.38;4927198;28;108026;-90
2021/11/15 05:03:57;;;;;;;13.40;11.77;;;;;;;13.60;68.72;102269.69;4929276;28;102410;-92
2021/11/15 05:06:23;;;;;;;14.32;12.32;;;;;;;13.59;68.86;102276.22;4917960;28;102460;-91
2021/11/15 05:08:50;;;;;;;16.00;11.90;;;;;;;13.60;68.60;102277.88;4931888;28;102183;-92
2021/11/15 05:11:16;;;;;;;15.45;12.73;;;;;;;13.61;68.58;102285.00;4925689;28;103104;-92
2021/11/15 05:13:44;;;;;;;15.30;12.40;;;;;;;13.60;68.73;102283.34;4937169;28;102318;-91
2021/11/15 05:16:11;;;;;;;13.85;12.32;;;;;;;13.60;68.60;102286.09;4921148;28;102368;-92
2021/11/15 05:18:38;;;;;;;15.13;12.20;;;;;;;13.60;68.71;102291.56;4932190;28;102988;-92
2021/11/15 05:21:04;;;;;;;15.23;11.70;;;;;;;13.61;68.74;102301.41;4930397;28;102920;-93
2021/11/15 05:23:31;;;;;;;14.30;11.55;;;;;;;13.60;68.87;102305.25;4932178;28;102341;-92
2021/11/15 05:25:58;;;;;;;17.30;12.82;;;;;;;13.61;68.75;102306.06;4936477;28;102201;-91
2021/11/15 05:28:24;;;;;;;16.00;12.23;;;;;;;13.60;68.99;102316.19;4939600;28;102764;-91
2021/11/15 05:30:52;;;;;;;13.90;11.15;;;;;;;13.60;68.71;102316.19;4938063;28;103219;-92
2021/11/15 05:33:19;;;;;;;16.43;12.40;;;;;;;13.61;68.76;102322.47;4936952;28;102555;-93
2021/11/15 05:35:46;;;;;;;15.05;11.98;;;;;;;13.60;68.82;102324.38;4934268;28;102122;-91
2021/11/15 05:38:12;;;;;;;16.00;12.35;;;;;;;13.61;68.61;102323.31;4934678;28;102570;-92
2021/11/15 05:40:39;;;;;;;13.57;11.93;;;;;;;13.60;68.63;102318.09;4928751;28;102712;-91
2021/11/15 05:43:05;;;;;;;14.15;12.05;;;;;;;13.60;68.76;102316.19;4931324;28;102404;-91
2021/11/15 05:45:32;;;;;;;13.85;11.65;;;;;;;13.60;68.82;102321.66;4936456;28;102082;-92
2021/11/15 05:48:00;;;;;;;17.23;12.20;;;;;;;13.60;68.76;102327.13;4939657;28;102120;-93
2021/11/15 05:50:28;;;;;;;14.55;11.80;;;;;;;13.61;68.84;102327.94;4932030;28;103737;-92
2021/11/15 05:52:55;;;;;;;13.77;11.57;;;;;;;13.61;68.72;102339.72;4934602;28;102766;-91
2021/11/15 05:55:24;;;;;;;14.88;12.05;;;;;;;13.59;68.74;102341.84;4935383;28;102555;-93
2021/11/15 05:57:51;;;;;;;15.65;11.95;;;;;;;13.60;68.74;102353.66;4927035;28;102566;-93
2021/11/15 06:00:20;;;;;;;15.57;13.00;;;;;;;13.59;68.83;102352.81;4922462;28;102916;-93
2021/11/15 06:02:47;;;;;;;15.00;11.88;;;;;;;13.59;68.73;102355.53;4942431;28;102225;-94
2021/11/15 06:05:15;;;;;;;15.85;12.57;;;;;;;13.59;68.15;102361.00;4940095;28;102173;-90
2021/11/15 06:07:42;;;;;;;16.17;12.40;;;;;;;13.58;68.43;102362.09;4934513;28;102835;-96
2021/11/15 06:10:11;;;;;;;14.02;12.27;;;;;;;13.58;68.64;102367.56;4936322;28;102970;-93
2021/11/15 06:12:39;;;;;;;14.75;12.63;;;;;;;13.57;68.70;102371.41;4941108;28;102175;-91
2021/11/15 06:15:07;;;;;;;16.25;12.70;;;;;;;13.58;68.50;102366.75;4938073;28;102329;-93
2021/11/15 06:17:33;;;;;;;16.85;13.52;;;;;;;13.58;68.56;102373.03;4935764;28;102336;-94
2021/11/15 06:20:00;;;;;;;16.08;13.23;;;;;;;13.59;68.33;102382.06;4939185;28;102403;-93
2021/11/15 06:22:28;;;;;;;14.18;12.00;;;;;;;13.58;68.51;102367.56;4942901;28;102548;-93
2021/11/15 06:24:54;;;;;;;14.65;11.85;;;;;;;13.58;68.63;102375.78;4937087;28;105415;-92
2021/11/15 06:27:21;;;;;;;16.02;12.60;;;;;;;13.57;68.45;102376.88;4940095;28;102314;-93
2021/11/15 06:29:48;;;;;;;15.55;12.98;;;;;;;13.58;68.68;102381.25;4935206;28;103620;-96
2021/11/15 06:32:15;;;;;;;16.10;12.57;;;;;;;13.58;69.02;102383.97;4937258;28;104002;-92
2021/11/15 06:34:41;;;;;;;14.82;12.55;;;;;;;13.57;68.81;102382.34;4933820;28;102545;-91
2021/11/15 06:37:08;;;;;;;15.77;12.30;;;;;;;13.58;68.58;102394.94;4940752;28;103143;-93
2021/11/15 06:39:36;;;;;;;15.95;12.35;;;;;;;13.58;69.01;102394.09;4931699;28;105438;-93
2021/11/15 06:42:03;;;;;;;16.50;12.95;;;;;;;13.57;68.65;102393.28;4942708;28;102855;-93
2021/11/15 06:44:31;;;;;;;18.98;13.63;;;;;;;13.58;68.65;102405.03;4925791;28;102551;-93
2021/11/15 06:46:58;;;;;;;16.95;12.93;;;;;;;13.57;68.57;102409.69;4934167;28;102439;-93
2021/11/15 06:49:25;;;;;;;16.42;12.95;;;;;;;13.57;68.50;102408.88;4935458;28;103962;-93
2021/11/15 06:51:52;;;;;;;15.48;12.80;;;;;;;13.58;68.58;102407.78;4918757;28;102551;-92
2021/11/15 06:54:18;;;;;;;16.17;12.82;;;;;;;13.58;68.52;102407.78;4925525;28;102263;-92
2021/11/15 06:56:47;;;;;;;15.63;12.73;;;;;;;13.57;68.59;102404.22;4936623;28;102351;-92
2021/11/15 06:59:14;;;;;;;19.20;12.68;;;;;;;13.57;68.68;102409.69;4937590;28;102686;-95
2021/11/15 07:01:40;;;;;;;17.73;13.75;;;;;;;13.57;68.60;102414.34;4934602;28;102128;-93
2021/11/15 07:04:11;;;;;;;17.05;13.60;;;;;;;13.56;68.45;102418.97;4946944;28;102053;-92
2021/11/15 07:06:40;;;;;;;16.17;13.35;;;;;;;13.56;68.95;102416.25;4930156;28;102340;-92
2021/11/15 07:09:07;;;;;;;17.10;13.48;;;;;;;13.56;68.63;102429.91;4909043;28;104688;-91
2021/11/15 07:11:34;;;;;;;15.13;11.82;;;;;;;13.57;68.61;102430.75;4937220;28;102269;-92
2021/11/15 07:14:03;;;;;;;15.57;13.15;;;;;;;13.56;68.79;102429.91;4940106;28;102055;-91
2021/11/15 07:16:30;;;;;;;17.30;13.55;;;;;;;13.56;68.46;102432.66;4933179;28;102332;-91
2021/11/15 07:18:56;;;;;;;16.90;13.30;;;;;;;13.56;68.58;102432.66;4940922;28;102609;-91
2021/11/15 07:21:23;;;;;;;15.75;12.55;;;;;;;13.55;68.39;102422.78;4933331;28;102696;-91
2021/11/15 07:23:51;;;;;;;18.88;13.20;;;;;;;13.56;68.54;102429.06;4933674;28;102194;-91
2021/11/15 07:26:22;;;;;;;16.33;13.45;;;;;;;13.55;68.50;102430.97;4921115;28;102600;-92
2021/11/15 07:28:48;;;;;;;16.30;13.48;;;;;;;13.56;68.50;102440.00;4926778;28;103912;-90
2021/11/15 07:31:16;;;;;;;16.98;13.43;;;;;;;13.54;68.39;102437.53;4928757;28;102506;-93
2021/11/15 07:33:45;;;;;;;16.00;13.43;;;;;;;13.55;68.59;102439.19;4928599;28;102174;-90
2021/11/15 07:36:11;;;;;;;16.50;12.95;;;;;;;13.55;68.46;102433.72;4935326;28;102812;-89
2021/11/15 07:38:38;;;;;;;16.33;13.00;;;;;;;13.55;68.54;102438.34;4928333;28;102778;-90
2021/11/15 07:41:05;;;;;;;15.65;13.10;;;;;;;13.54;68.53;102440.28;4928022;28;102564;-90
2021/11/15 07:43:31;;;;;;;18.08;13.30;;;;;;;13.54;68.51;102443.00;4932317;28;102906;-90
2021/11/15 07:45:59;;;;;;;16.95;12.85;;;;;;;13.54;68.49;102445.75;4922675;28;102402;-90
2021/11/15 07:48:28;;;;;;;16.42;13.38;;;;;;;13.53;68.53;102446.84;4931052;28;102902;-90
2021/11/15 07:50:55;;;;;;;15.95;12.75;;;;;;;13.54;68.50;102445.75;4935043;28;102286;-89
2021/11/15 07:53:22;;;;;;;15.93;12.85;;;;;;;13.52;68.40;102439.69;4932450;28;102696;-90
2021/11/15 07:55:48;;;;;;;15.35;12.40;;;;;;;13.53;68.55;102446.00;4934943;28;103325;-91
2021/11/15 07:58:16;;;;;;;15.45;12.60;;;;;;;13.54;68.42;102443.00;4933409;28;102991;-89
2021/11/15 08:00:42;;;;;;;16.08;13.13;;;;;;;13.52;68.51;102445.16;4936451;28;102604;-90
2021/11/15 08:03:09;;;;;;;16.13;13.07;;;;;;;13.53;68.61;102452.31;4937338;28;102253;-90
2021/11/15 08:05:37;;;;;;;16.25;13.20;;;;;;;13.52;68.40;102456.09;4934744;28;102582;-91
2021/11/15 08:08:03;;;;;;;15.13;12.98;;;;;;;13.53;68.60;102463.25;4933585;28;103847;-90
2021/11/15 08:10:30;;;;;;;15.77;12.75;;;;;;;13.54;68.40;102464.06;4930926;28;102378;-92
2021/11/15 08:12:58;;;;;;;15.43;12.80;;;;;;;13.53;68.46;102465.97;4937732;28;102245;-91
2021/11/15 08:15:26;;;;;;;16.85;12.32;;;;;;;13.54;68.54;102464.06;4937179;28;102098;-92
2021/11/15 08:17:55;;;;;;;15.15;12.10;;;;;;;13.54;68.37;102469.53;4932727;28;103600;-90
2021/11/15 08:20:24;;;;;;;;;;;;;;;13.53;68.40;102457.78;4935731;28;102442;-90
2021/11/15 08:22:54;;;;;;;16.40;12.95;;;;;;;13.53;68.38;102468.72;4924800;28;103419;-90
2021/11/15 08:26:05;;;;;;;16.92;12.80;;;;;;;13.53;68.57;102462.41;4916628;28;102402;-90
2021/11/15 08:28:32;;;;;;;16.10;13.48;;;;;;;13.53;68.40;102474.19;4931905;28;103355;-91
2021/11/15 08:30:59;;;;;;;15.55;12.07;;;;;;;13.52;68.30;102460.75;4924530;28;102089;-88
2021/11/15 08:33:28;;;;;;;15.27;12.18;;;;;;;13.53;68.40;102468.72;4927310;28;102552;-92
2021/11/15 08:35:55;;;;;;;17.30;13.15;;;;;;;13.53;68.29;102474.19;4925366;28;103951;-90
2021/11/15 08:38:48;;;;;;;16.90;12.98;;;;;;;13.52;68.53;102477.97;4933905;28;103189;-87
2021/11/15 08:41:16;;;;;;;15.45;12.20;;;;;;;13.52;68.29;102475.22;4926654;28;103131;-88
2021/11/15 08:43:43;;;;;;;15.63;12.52;;;;;;;13.52;68.32;102477.97;4933122;28;102629;-87
2021/11/15 08:46:15;;;;;;;16.27;12.82;;;;;;;13.53;68.33;102476.09;4935182;28;102660;-88
2021/11/15 08:48:43;;;;;;;17.83;13.00;;;;;;;13.52;68.16;102477.97;4925847;28;108104;-87
2021/11/15 08:51:11;;;;;;;14.23;12.20;;;;;;;13.51;68.29;102476.31;4925722;28;102078;-88
2021/11/15 08:53:38;;;;;;;15.60;12.27;;;;;;;13.51;68.29;102476.31;4936038;28;102491;-87
2021/11/15 08:56:06;;;;;;;15.77;12.23;;;;;;;13.52;68.32;102477.97;4923957;28;103282;-87
2021/11/15 08:58:34;;;;;;;17.23;13.55;;;;;;;13.52;68.27;102477.97;4934860;28;102766;-88
2021/11/15 09:01:00;;;;;;;14.80;12.52;;;;;;;13.52;68.26;102471.69;4928378;28;102139;-87
2021/11/15 09:03:27;;;;;;;16.63;13.68;;;;;;;13.52;68.10;102475.22;4934668;28;102506;-88
2021/11/15 09:05:53;;;;;;;17.65;12.82;;;;;;;13.53;68.16;102467.88;4938427;28;102335;-87
2021/11/15 09:08:21;;;;;;;17.50;13.68;;;;;;;13.52;68.34;102472.50;4939050;28;103429;-88
2021/11/15 09:10:48;;;;;;;18.17;14.25;;;;;;;13.52;68.31;102467.03;4924816;28;102305;-87
2021/11/15 09:13:15;;;;;;;17.05;13.73;;;;;;;13.52;68.33;102461.56;4936854;28;102273;-87
2021/11/15 09:15:42;;;;;;;17.20;13.20;;;;;;;13.51;68.28;102459.91;4933451;28;102500;-88
2021/11/15 09:18:09;;;;;;;16.90;14.20;;;;;;;13.52;68.17;102472.50;4938258;28;102972;-88
2021/11/15 09:20:36;;;;;;;15.75;13.63;;;;;;;13.52;68.36;102467.03;4941126;28;102188;-88
2021/11/15 09:23:03;;;;;;;17.33;13.77;;;;;;;13.52;68.29;102472.50;4938977;28;101913;-88
2021/11/15 09:25:30;;;;;;;18.35;13.57;;;;;;;13.52;68.19;102467.03;4940542;28;102309;-88
2021/11/15 09:27:57;;;;;;;16.95;13.43;;;;;;;13.53;68.22;102462.41;4923928;28;105211;-87
2021/11/15 09:30:25;;;;;;;18.42;14.13;;;;;;;13.53;68.30;102460.50;4945316;28;102639;-87
2021/11/15 09:32:52;;;;;;;17.03;13.47;;;;;;;13.53;68.27;102457.78;4933736;28;102601;-87
2021/11/15 09:35:19;;;;;;;16.63;14.05;;;;;;;13.52;68.28;102464.28;4917089;28;102501;-87
2021/11/15 09:37:46;;;;;;;18.15;14.48;;;;;;;13.52;68.30;102458.81;4928217;28;103922;-87
2021/11/15 09:40:14;;;;;;;16.48;13.85;;;;;;;13.54;68.29;102464.06;4932605;28;102319;-87
2021/11/15 09:42:40;;;;;;;19.63;14.30;;;;;;;13.53;68.33;102457.78;4932301;28;102484;-86
2021/11/15 09:45:08;;;;;;;17.90;14.52;;;;;;;13.52;68.12;102458.81;4931825;28;102752;-87
2021/11/15 09:47:38;;;;;;;20.65;15.23;;;;;;;13.53;68.20;102468.72;4930817;28;103942;-86
2021/11/15 09:50:08;;;;;;;18.17;14.38;;;;;;;13.53;68.24;102462.41;4932512;28;102747;-88
2021/11/15 09:52:36;;;;;;;18.95;14.85;;;;;;;13.52;68.24;102464.28;4924867;28;102318;-87
2021/11/15 09:55:04;;;;;;;19.30;14.85;;;;;;;13.53;68.14;102459.69;4933871;28;103106;-85
2021/11/15 09:57:35;;;;;;;21.52;16.58;;;;;;;13.53;68.27;102451.47;4935227;28;102738;-87
2021/11/15 10:00:02;;;;;;;22.02;15.77;;;;;;;13.53;68.26;102456.94;4926146;28;102064;-88
2021/11/15 10:02:29;;;;;;;24.25;17.20;;;;;;;13.53;68.10;102451.47;4928745;28;102256;-88
2021/11/15 10:04:57;;;;;;;18.35;15.43;;;;;;;13.52;68.17;102456.09;4936609;28;106521;-87
2021/11/15 10:07:39;;;;;;;21.83;16.07;;;;;;;13.52;68.33;102458.00;4931366;28;102721;-87
2021/11/15 10:10:41;;;;;;;21.67;16.42;;;;;;;13.52;68.22;102455.25;4937399;28;102270;-88
2021/11/15 10:13:18;;;;;;;19.42;16.33;;;;;;;13.52;68.20;102460.75;4854716;28;102803;-88
2021/11/15 10:16:04;;;;;;;26.25;17.70;;;;;;;13.52;68.10;102450.63;4860883;28;102435;-87
2021/11/15 10:18:35;;;;;;;21.65;17.02;;;;;;;13.52;68.13;102461.56;4910440;28;103840;-88
2021/11/15 10:21:06;;;;;;;22.38;16.45;;;;;;;13.53;68.20;102462.41;4935551;28;102227;-88
2021/11/15 10:23:42;;;;;;;22.35;16.63;;;;;;;13.52;68.02;102467.03;4936834;28;102627;-88
2021/11/15 10:26:12;;;;;;;24.67;17.83;;;;;;;13.51;68.20;102462.66;4933384;28;102265;-88
2021/11/15 10:28:38;;;;;;;24.60;17.95;;;;;;;13.52;67.98;102472.50;4938147;28;102968;-88
2021/11/15 10:31:06;;;;;;;22.33;17.38;;;;;;;13.53;68.19;102467.88;4932492;28;102455;-88
2021/11/15 10:33:35;;;;;;;21.00;17.05;;;;;;;13.53;68.03;102465.97;4933548;28;102560;-87
2021/11/15 10:36:03;;;;;;;26.00;18.05;;;;;;;13.53;68.25;102478.81;4937812;28;102529;-88
2021/11/15 10:38:42;;;;;;;21.98;17.08;;;;;;;13.52;68.29;102469.75;4931661;28;104465;-87
2021/11/15 10:41:13;;;;;;;22.63;17.27;;;;;;;13.53;68.14;102478.81;4932395;28;102481;-88
2021/11/15 10:43:40;;;;;;;20.42;16.42;;;;;;;13.52;68.21;102477.97;4936020;28;102438;-88
2021/11/15 10:46:07;;;;;;;24.77;18.50;;;;;;;13.52;68.28;102483.44;4935664;28;102967;-88
2021/11/15 10:48:45;;;;;;;21.00;16.65;;;;;;;13.52;68.16;102472.50;4931177;28;102539;-87
2021/11/15 10:51:15;;;;;;;21.57;16.87;;;;;;;13.52;68.07;102477.16;4930188;28;102309;-87
2021/11/15 10:54:01;;;;;;;23.40;17.98;;;;;;;13.51;68.30;102476.31;4938132;28;102225;-87
2021/11/15 10:56:41;;;;;;;22.73;16.95;;;;;;;13.51;67.99;102470.84;4937135;28;102650;-87
2021/11/15 10:59:13;;;;;;;22.60;18.00;;;;;;;13.51;68.00;102464.56;4933534;28;104084;-88
2021/11/15 11:01:40;;;;;;;23.58;17.73;;;;;;;13.51;68.02;102465.38;4933234;28;102535;-87
2021/11/15 11:04:08;;;;;;;26.90;18.90;;;;;;;13.50;68.00;102469.19;4939406;28;102299;-88
2021/11/15 11:06:54;;;;;;;22.35;17.35;;;;;;;13.51;68.02;102462.66;4928963;28;102627;-87